sensor_id;sensor_type;location;lat;lon;timestamp;P1;durP1;ratioP1;P2;durP2;ratioP2
74371;SDS011;62885;51.374;6.170;2023-04-24T00:00:13;4.30;;;2.40;;
74371;SDS011;62885;51.374;6.170;2023-04-24T00:02:40;7.55;;;2.90;;
74371;SDS011;62885;51.374;6.170;2023-04-24T00:05:10;6.15;;;2.88;;
74371;SDS011;62885;51.374;6.170;2023-04-24T00:07:35;6.95;;;2.83;;
74371;SDS011;62885;51.374;6.170;2023-04-24T00:10:00;5.22;;;2.50;;
74371;SDS011;62885;51.374;6.170;2023-04-24T00:12:26;4.53;;;2.42;;
74371;SDS011;62885;51.374;6.170;2023-04-24T00:14:52;5.53;;;2.13;;
74371;SDS011;62885;51.374;6.170;2023-04-24T00:17:18;6.85;;;2.60;;
74371;SDS011;62885;51.374;6.170;2023-04-24T00:19:48;5.43;;;2.47;;
74371;SDS011;62885;51.374;6.170;2023-04-24T00:24:41;7.82;;;2.65;;
74371;SDS011;62885;51.374;6.170;2023-04-24T00:27:06;6.57;;;2.60;;
74371;SDS011;62885;51.374;6.170;2023-04-24T00:29:32;6.15;;;2.47;;
74371;SDS011;62885;51.374;6.170;2023-04-24T00:31:57;5.95;;;2.90;;
74371;SDS011;62885;51.374;6.170;2023-04-24T00:34:23;6.40;;;2.45;;
74371;SDS011;62885;51.374;6.170;2023-04-24T00:36:48;7.47;;;2.55;;
74371;SDS011;62885;51.374;6.170;2023-04-24T00:39:20;6.75;;;2.70;;
74371;SDS011;62885;51.374;6.170;2023-04-24T00:41:46;8.80;;;3.25;;
74371;SDS011;62885;51.374;6.170;2023-04-24T00:44:13;8.55;;;3.20;;
74371;SDS011;62885;51.374;6.170;2023-04-24T00:46:39;8.40;;;3.13;;
74371;SDS011;62885;51.374;6.170;2023-04-24T00:49:05;8.77;;;3.38;;
74371;SDS011;62885;51.374;6.170;2023-04-24T00:51:31;8.43;;;3.67;;
74371;SDS011;62885;51.374;6.170;2023-04-24T00:53:57;6.53;;;3.55;;
74371;SDS011;62885;51.374;6.170;2023-04-24T00:56:23;8.50;;;3.80;;
74371;SDS011;62885;51.374;6.170;2023-04-24T00:58:49;7.90;;;3.70;;
74371;SDS011;62885;51.374;6.170;2023-04-24T01:01:15;9.93;;;3.70;;
74371;SDS011;62885;51.374;6.170;2023-04-24T01:03:40;9.43;;;3.85;;
74371;SDS011;62885;51.374;6.170;2023-04-24T01:06:06;8.50;;;4.20;;
74371;SDS011;62885;51.374;6.170;2023-04-24T01:08:33;6.45;;;3.88;;
74371;SDS011;62885;51.374;6.170;2023-04-24T01:10:59;8.85;;;3.85;;
74371;SDS011;62885;51.374;6.170;2023-04-24T01:13:28;8.32;;;3.15;;
74371;SDS011;62885;51.374;6.170;2023-04-24T01:15:54;8.95;;;3.88;;
74371;SDS011;62885;51.374;6.170;2023-04-24T01:18:22;7.43;;;3.53;;
74371;SDS011;62885;51.374;6.170;2023-04-24T01:20:47;7.85;;;3.95;;
74371;SDS011;62885;51.374;6.170;2023-04-24T01:23:18;8.20;;;3.97;;
74371;SDS011;62885;51.374;6.170;2023-04-24T01:25:43;10.25;;;4.55;;
74371;SDS011;62885;51.374;6.170;2023-04-24T01:28:09;9.63;;;3.83;;
74371;SDS011;62885;51.374;6.170;2023-04-24T01:30:35;9.75;;;4.85;;
74371;SDS011;62885;51.374;6.170;2023-04-24T01:33:00;9.25;;;4.40;;
74371;SDS011;62885;51.374;6.170;2023-04-24T01:35:26;13.27;;;4.50;;
74371;SDS011;62885;51.374;6.170;2023-04-24T01:37:52;7.88;;;4.00;;
74371;SDS011;62885;51.374;6.170;2023-04-24T01:40:17;9.50;;;4.35;;
74371;SDS011;62885;51.374;6.170;2023-04-24T01:42:42;11.38;;;5.05;;
74371;SDS011;62885;51.374;6.170;2023-04-24T01:45:09;7.72;;;4.13;;
74371;SDS011;62885;51.374;6.170;2023-04-24T01:47:36;10.75;;;4.22;;
74371;SDS011;62885;51.374;6.170;2023-04-24T01:50:02;9.18;;;4.63;;
74371;SDS011;62885;51.374;6.170;2023-04-24T01:52:28;7.90;;;4.43;;
74371;SDS011;62885;51.374;6.170;2023-04-24T01:54:56;9.75;;;5.47;;
74371;SDS011;62885;51.374;6.170;2023-04-24T01:57:24;11.57;;;5.78;;
74371;SDS011;62885;51.374;6.170;2023-04-24T01:59:49;10.38;;;6.03;;
74371;SDS011;62885;51.374;6.170;2023-04-24T02:02:16;11.40;;;4.72;;
74371;SDS011;62885;51.374;6.170;2023-04-24T02:04:41;12.70;;;5.40;;
74371;SDS011;62885;51.374;6.170;2023-04-24T02:07:06;9.50;;;5.18;;
74371;SDS011;62885;51.374;6.170;2023-04-24T02:09:32;12.57;;;5.70;;
74371;SDS011;62885;51.374;6.170;2023-04-24T02:11:58;13.40;;;6.25;;
74371;SDS011;62885;51.374;6.170;2023-04-24T02:14:23;14.45;;;6.18;;
74371;SDS011;62885;51.374;6.170;2023-04-24T02:16:49;12.70;;;5.70;;
74371;SDS011;62885;51.374;6.170;2023-04-24T02:19:14;11.18;;;5.72;;
74371;SDS011;62885;51.374;6.170;2023-04-24T02:21:40;10.82;;;5.88;;
74371;SDS011;62885;51.374;6.170;2023-04-24T02:24:05;13.15;;;6.70;;
74371;SDS011;62885;51.374;6.170;2023-04-24T02:26:30;14.55;;;6.13;;
74371;SDS011;62885;51.374;6.170;2023-04-24T02:28:56;12.82;;;6.65;;
74371;SDS011;62885;51.374;6.170;2023-04-24T02:31:22;11.93;;;5.93;;
74371;SDS011;62885;51.374;6.170;2023-04-24T02:33:47;14.98;;;6.00;;
74371;SDS011;62885;51.374;6.170;2023-04-24T02:36:14;14.00;;;5.90;;
74371;SDS011;62885;51.374;6.170;2023-04-24T02:38:39;14.18;;;6.03;;
74371;SDS011;62885;51.374;6.170;2023-04-24T02:41:05;14.75;;;6.57;;
74371;SDS011;62885;51.374;6.170;2023-04-24T02:43:31;11.30;;;6.00;;
74371;SDS011;62885;51.374;6.170;2023-04-24T02:45:57;12.23;;;6.80;;
74371;SDS011;62885;51.374;6.170;2023-04-24T02:48:22;11.10;;;6.97;;
74371;SDS011;62885;51.374;6.170;2023-04-24T02:50:48;14.55;;;7.25;;
74371;SDS011;62885;51.374;6.170;2023-04-24T02:53:14;11.30;;;6.32;;
74371;SDS011;62885;51.374;6.170;2023-04-24T02:55:39;16.17;;;7.75;;
74371;SDS011;62885;51.374;6.170;2023-04-24T02:58:04;13.73;;;6.65;;
74371;SDS011;62885;51.374;6.170;2023-04-24T03:00:30;14.40;;;6.97;;
74371;SDS011;62885;51.374;6.170;2023-04-24T03:02:56;15.30;;;8.00;;
74371;SDS011;62885;51.374;6.170;2023-04-24T03:05:21;12.55;;;7.13;;
74371;SDS011;62885;51.374;6.170;2023-04-24T03:07:47;13.73;;;7.13;;
74371;SDS011;62885;51.374;6.170;2023-04-24T03:10:12;12.10;;;5.93;;
74371;SDS011;62885;51.374;6.170;2023-04-24T03:12:38;12.63;;;6.50;;
74371;SDS011;62885;51.374;6.170;2023-04-24T03:15:03;12.02;;;6.65;;
74371;SDS011;62885;51.374;6.170;2023-04-24T03:17:29;11.70;;;5.63;;
74371;SDS011;62885;51.374;6.170;2023-04-24T03:19:55;14.55;;;6.35;;
74371;SDS011;62885;51.374;6.170;2023-04-24T03:22:20;13.02;;;6.40;;
74371;SDS011;62885;51.374;6.170;2023-04-24T03:24:45;10.55;;;6.68;;
74371;SDS011;62885;51.374;6.170;2023-04-24T03:27:11;12.07;;;6.75;;
74371;SDS011;62885;51.374;6.170;2023-04-24T03:29:36;16.15;;;6.85;;
74371;SDS011;62885;51.374;6.170;2023-04-24T03:32:01;9.20;;;5.38;;
74371;SDS011;62885;51.374;6.170;2023-04-24T03:34:27;11.27;;;5.90;;
74371;SDS011;62885;51.374;6.170;2023-04-24T03:36:53;13.60;;;7.55;;
74371;SDS011;62885;51.374;6.170;2023-04-24T03:39:18;12.73;;;6.80;;
74371;SDS011;62885;51.374;6.170;2023-04-24T03:41:43;11.57;;;5.65;;
74371;SDS011;62885;51.374;6.170;2023-04-24T03:44:09;10.80;;;6.15;;
74371;SDS011;62885;51.374;6.170;2023-04-24T03:46:34;10.98;;;6.15;;
74371;SDS011;62885;51.374;6.170;2023-04-24T03:49:00;10.90;;;6.43;;
74371;SDS011;62885;51.374;6.170;2023-04-24T03:51:25;9.55;;;5.78;;
74371;SDS011;62885;51.374;6.170;2023-04-24T03:53:53;9.52;;;6.05;;
74371;SDS011;62885;51.374;6.170;2023-04-24T03:56:18;11.05;;;6.38;;
74371;SDS011;62885;51.374;6.170;2023-04-24T03:58:44;13.02;;;5.15;;
74371;SDS011;62885;51.374;6.170;2023-04-24T04:01:10;11.77;;;5.00;;
74371;SDS011;62885;51.374;6.170;2023-04-24T04:03:36;12.05;;;5.40;;
74371;SDS011;62885;51.374;6.170;2023-04-24T04:06:02;10.88;;;5.68;;
74371;SDS011;62885;51.374;6.170;2023-04-24T04:08:27;12.95;;;5.35;;
74371;SDS011;62885;51.374;6.170;2023-04-24T04:10:52;11.63;;;5.25;;
74371;SDS011;62885;51.374;6.170;2023-04-24T04:13:18;11.20;;;5.90;;
74371;SDS011;62885;51.374;6.170;2023-04-24T04:15:43;9.52;;;4.75;;
74371;SDS011;62885;51.374;6.170;2023-04-24T04:18:08;9.95;;;5.07;;
74371;SDS011;62885;51.374;6.170;2023-04-24T04:20:34;9.13;;;4.45;;
74371;SDS011;62885;51.374;6.170;2023-04-24T04:23:00;8.77;;;4.78;;
74371;SDS011;62885;51.374;6.170;2023-04-24T04:25:25;12.15;;;5.35;;
74371;SDS011;62885;51.374;6.170;2023-04-24T04:27:50;8.02;;;4.28;;
74371;SDS011;62885;51.374;6.170;2023-04-24T04:30:16;8.57;;;4.90;;
74371;SDS011;62885;51.374;6.170;2023-04-24T04:32:43;7.18;;;4.47;;
74371;SDS011;62885;51.374;6.170;2023-04-24T04:35:08;8.68;;;4.43;;
74371;SDS011;62885;51.374;6.170;2023-04-24T04:37:34;8.73;;;4.07;;
74371;SDS011;62885;51.374;6.170;2023-04-24T04:39:59;8.35;;;4.40;;
74371;SDS011;62885;51.374;6.170;2023-04-24T04:42:26;7.30;;;4.43;;
74371;SDS011;62885;51.374;6.170;2023-04-24T04:44:54;7.63;;;3.75;;
74371;SDS011;62885;51.374;6.170;2023-04-24T04:47:21;10.15;;;4.57;;
74371;SDS011;62885;51.374;6.170;2023-04-24T04:49:50;8.65;;;4.43;;
74371;SDS011;62885;51.374;6.170;2023-04-24T04:52:18;8.43;;;4.57;;
74371;SDS011;62885;51.374;6.170;2023-04-24T04:54:44;8.30;;;4.00;;
74371;SDS011;62885;51.374;6.170;2023-04-24T04:57:10;7.50;;;3.95;;
74371;SDS011;62885;51.374;6.170;2023-04-24T04:59:35;11.43;;;4.85;;
74371;SDS011;62885;51.374;6.170;2023-04-24T05:02:00;9.55;;;5.50;;
74371;SDS011;62885;51.374;6.170;2023-04-24T05:04:26;9.27;;;4.63;;
74371;SDS011;62885;51.374;6.170;2023-04-24T05:06:51;9.27;;;5.05;;
74371;SDS011;62885;51.374;6.170;2023-04-24T05:09:17;8.63;;;4.80;;
74371;SDS011;62885;51.374;6.170;2023-04-24T05:11:43;9.82;;;5.50;;
74371;SDS011;62885;51.374;6.170;2023-04-24T05:14:08;9.48;;;5.55;;
74371;SDS011;62885;51.374;6.170;2023-04-24T05:16:33;8.48;;;4.95;;
74371;SDS011;62885;51.374;6.170;2023-04-24T05:18:59;10.10;;;5.32;;
74371;SDS011;62885;51.374;6.170;2023-04-24T05:21:25;8.18;;;4.78;;
74371;SDS011;62885;51.374;6.170;2023-04-24T05:23:50;9.57;;;5.28;;
74371;SDS011;62885;51.374;6.170;2023-04-24T05:26:15;11.88;;;5.68;;
74371;SDS011;62885;51.374;6.170;2023-04-24T05:28:41;11.57;;;5.93;;
74371;SDS011;62885;51.374;6.170;2023-04-24T05:31:06;9.40;;;5.00;;
74371;SDS011;62885;51.374;6.170;2023-04-24T05:33:31;11.73;;;5.22;;
74371;SDS011;62885;51.374;6.170;2023-04-24T05:35:57;7.65;;;4.47;;
74371;SDS011;62885;51.374;6.170;2023-04-24T05:38:22;8.65;;;5.03;;
74371;SDS011;62885;51.374;6.170;2023-04-24T05:40:48;9.07;;;5.00;;
74371;SDS011;62885;51.374;6.170;2023-04-24T05:43:13;8.73;;;4.30;;
74371;SDS011;62885;51.374;6.170;2023-04-24T05:45:38;9.07;;;4.85;;
74371;SDS011;62885;51.374;6.170;2023-04-24T05:48:04;10.35;;;4.88;;
74371;SDS011;62885;51.374;6.170;2023-04-24T05:50:30;9.68;;;4.50;;
74371;SDS011;62885;51.374;6.170;2023-04-24T05:52:55;9.02;;;4.57;;
74371;SDS011;62885;51.374;6.170;2023-04-24T05:55:23;8.68;;;4.32;;
74371;SDS011;62885;51.374;6.170;2023-04-24T05:57:49;8.65;;;4.32;;
74371;SDS011;62885;51.374;6.170;2023-04-24T06:00:15;9.57;;;4.07;;
74371;SDS011;62885;51.374;6.170;2023-04-24T06:02:40;9.25;;;4.18;;
74371;SDS011;62885;51.374;6.170;2023-04-24T06:05:06;6.57;;;3.40;;
74371;SDS011;62885;51.374;6.170;2023-04-24T06:07:33;8.98;;;3.72;;
74371;SDS011;62885;51.374;6.170;2023-04-24T06:09:58;9.57;;;3.40;;
74371;SDS011;62885;51.374;6.170;2023-04-24T06:12:24;8.45;;;3.55;;
74371;SDS011;62885;51.374;6.170;2023-04-24T06:14:50;6.22;;;3.03;;
74371;SDS011;62885;51.374;6.170;2023-04-24T06:17:16;7.55;;;3.40;;
74371;SDS011;62885;51.374;6.170;2023-04-24T06:19:41;6.63;;;2.78;;
74371;SDS011;62885;51.374;6.170;2023-04-24T06:22:07;5.80;;;2.88;;
74371;SDS011;62885;51.374;6.170;2023-04-24T06:24:33;5.88;;;2.53;;
74371;SDS011;62885;51.374;6.170;2023-04-24T06:26:59;8.13;;;2.63;;
74371;SDS011;62885;51.374;6.170;2023-04-24T06:29:26;5.22;;;2.50;;
74371;SDS011;62885;51.374;6.170;2023-04-24T06:31:52;5.25;;;2.10;;
74371;SDS011;62885;51.374;6.170;2023-04-24T06:34:17;4.75;;;2.15;;
74371;SDS011;62885;51.374;6.170;2023-04-24T06:36:42;3.42;;;1.77;;
74371;SDS011;62885;51.374;6.170;2023-04-24T06:39:08;4.47;;;1.83;;
74371;SDS011;62885;51.374;6.170;2023-04-24T06:41:34;3.10;;;1.50;;
74371;SDS011;62885;51.374;6.170;2023-04-24T06:43:59;2.28;;;1.33;;
74371;SDS011;62885;51.374;6.170;2023-04-24T06:46:24;2.90;;;1.08;;
74371;SDS011;62885;51.374;6.170;2023-04-24T06:48:52;1.95;;;1.30;;
74371;SDS011;62885;51.374;6.170;2023-04-24T06:51:24;2.50;;;1.40;;
74371;SDS011;62885;51.374;6.170;2023-04-24T06:53:51;5.13;;;1.60;;
74371;SDS011;62885;51.374;6.170;2023-04-24T06:56:17;2.95;;;1.42;;
74371;SDS011;62885;51.374;6.170;2023-04-24T06:58:42;2.95;;;1.50;;
74371;SDS011;62885;51.374;6.170;2023-04-24T07:01:08;3.72;;;1.90;;
74371;SDS011;62885;51.374;6.170;2023-04-24T07:03:33;1.88;;;1.00;;
74371;SDS011;62885;51.374;6.170;2023-04-24T07:05:59;2.28;;;1.30;;
74371;SDS011;62885;51.374;6.170;2023-04-24T07:08:24;3.15;;;1.13;;
74371;SDS011;62885;51.374;6.170;2023-04-24T07:10:50;1.65;;;0.85;;
74371;SDS011;62885;51.374;6.170;2023-04-24T07:13:16;4.55;;;0.98;;
74371;SDS011;62885;51.374;6.170;2023-04-24T07:15:42;2.67;;;1.15;;
74371;SDS011;62885;51.374;6.170;2023-04-24T07:18:07;2.88;;;1.20;;
74371;SDS011;62885;51.374;6.170;2023-04-24T07:20:33;2.83;;;1.00;;
74371;SDS011;62885;51.374;6.170;2023-04-24T07:22:59;2.90;;;1.17;;
74371;SDS011;62885;51.374;6.170;2023-04-24T07:25:24;2.75;;;1.30;;
74371;SDS011;62885;51.374;6.170;2023-04-24T07:27:50;3.47;;;1.48;;
74371;SDS011;62885;51.374;6.170;2023-04-24T07:30:15;2.70;;;1.73;;
74371;SDS011;62885;51.374;6.170;2023-04-24T07:32:41;3.10;;;1.67;;
74371;SDS011;62885;51.374;6.170;2023-04-24T07:35:06;5.18;;;1.73;;
74371;SDS011;62885;51.374;6.170;2023-04-24T07:37:32;3.35;;;1.65;;
74371;SDS011;62885;51.374;6.170;2023-04-24T07:39:57;3.60;;;1.52;;
74371;SDS011;62885;51.374;6.170;2023-04-24T07:42:23;4.45;;;1.42;;
74371;SDS011;62885;51.374;6.170;2023-04-24T07:44:48;2.65;;;1.50;;
74371;SDS011;62885;51.374;6.170;2023-04-24T07:47:14;3.88;;;1.95;;
74371;SDS011;62885;51.374;6.170;2023-04-24T07:49:42;6.60;;;2.00;;
74371;SDS011;62885;51.374;6.170;2023-04-24T07:52:08;2.30;;;1.30;;
74371;SDS011;62885;51.374;6.170;2023-04-24T07:54:33;2.15;;;1.38;;
74371;SDS011;62885;51.374;6.170;2023-04-24T07:56:59;2.78;;;1.35;;
74371;SDS011;62885;51.374;6.170;2023-04-24T07:59:25;2.70;;;1.10;;
74371;SDS011;62885;51.374;6.170;2023-04-24T08:01:51;3.50;;;1.23;;
74371;SDS011;62885;51.374;6.170;2023-04-24T08:04:16;2.45;;;1.02;;
74371;SDS011;62885;51.374;6.170;2023-04-24T08:06:42;5.50;;;1.83;;
74371;SDS011;62885;51.374;6.170;2023-04-24T08:09:08;5.97;;;2.97;;
74371;SDS011;62885;51.374;6.170;2023-04-24T08:11:33;7.30;;;3.63;;
74371;SDS011;62885;51.374;6.170;2023-04-24T08:13:59;9.40;;;4.00;;
74371;SDS011;62885;51.374;6.170;2023-04-24T08:16:24;9.23;;;4.43;;
74371;SDS011;62885;51.374;6.170;2023-04-24T08:18:50;8.32;;;4.22;;
74371;SDS011;62885;51.374;6.170;2023-04-24T08:21:15;9.25;;;4.75;;
74371;SDS011;62885;51.374;6.170;2023-04-24T08:23:43;8.65;;;4.22;;
74371;SDS011;62885;51.374;6.170;2023-04-24T08:26:09;7.07;;;3.33;;
74371;SDS011;62885;51.374;6.170;2023-04-24T08:28:36;7.93;;;3.53;;
74371;SDS011;62885;51.374;6.170;2023-04-24T08:31:01;6.90;;;3.63;;
74371;SDS011;62885;51.374;6.170;2023-04-24T08:33:26;8.10;;;3.90;;
74371;SDS011;62885;51.374;6.170;2023-04-24T08:35:52;7.55;;;3.50;;
74371;SDS011;62885;51.374;6.170;2023-04-24T08:38:18;8.45;;;3.92;;
74371;SDS011;62885;51.374;6.170;2023-04-24T08:40:43;7.53;;;3.67;;
74371;SDS011;62885;51.374;6.170;2023-04-24T08:43:10;7.28;;;3.17;;
74371;SDS011;62885;51.374;6.170;2023-04-24T08:45:37;9.82;;;4.20;;
74371;SDS011;62885;51.374;6.170;2023-04-24T08:48:03;7.47;;;3.35;;
74371;SDS011;62885;51.374;6.170;2023-04-24T08:50:29;10.52;;;3.78;;
74371;SDS011;62885;51.374;6.170;2023-04-24T08:52:56;9.63;;;4.18;;
74371;SDS011;62885;51.374;6.170;2023-04-24T08:55:22;10.52;;;3.40;;
74371;SDS011;62885;51.374;6.170;2023-04-24T08:57:50;6.53;;;3.15;;
74371;SDS011;62885;51.374;6.170;2023-04-24T09:00:17;9.73;;;4.20;;
74371;SDS011;62885;51.374;6.170;2023-04-24T09:02:44;10.68;;;3.33;;
74371;SDS011;62885;51.374;6.170;2023-04-24T09:05:13;7.70;;;3.33;;
74371;SDS011;62885;51.374;6.170;2023-04-24T09:07:41;8.73;;;3.40;;
74371;SDS011;62885;51.374;6.170;2023-04-24T09:10:09;8.95;;;4.22;;
74371;SDS011;62885;51.374;6.170;2023-04-24T09:12:35;10.32;;;3.58;;
74371;SDS011;62885;51.374;6.170;2023-04-24T09:15:02;13.02;;;4.15;;
74371;SDS011;62885;51.374;6.170;2023-04-24T09:17:31;10.23;;;3.95;;
74371;SDS011;62885;51.374;6.170;2023-04-24T09:19:57;8.77;;;3.90;;
74371;SDS011;62885;51.374;6.170;2023-04-24T09:22:23;8.60;;;3.88;;
74371;SDS011;62885;51.374;6.170;2023-04-24T09:24:48;12.45;;;4.22;;
74371;SDS011;62885;51.374;6.170;2023-04-24T09:27:27;13.90;;;5.07;;
74371;SDS011;62885;51.374;6.170;2023-04-24T09:29:56;9.55;;;4.00;;
74371;SDS011;62885;51.374;6.170;2023-04-24T09:32:23;9.13;;;4.05;;
74371;SDS011;62885;51.374;6.170;2023-04-24T09:35:04;9.38;;;3.58;;
74371;SDS011;62885;51.374;6.170;2023-04-24T09:37:41;9.68;;;3.80;;
74371;SDS011;62885;51.374;6.170;2023-04-24T09:42:38;6.63;;;3.58;;
74371;SDS011;62885;51.374;6.170;2023-04-24T09:45:08;8.38;;;3.75;;
74371;SDS011;62885;51.374;6.170;2023-04-24T09:50:01;7.50;;;2.78;;
74371;SDS011;62885;51.374;6.170;2023-04-24T09:52:34;7.88;;;2.53;;
74371;SDS011;62885;51.374;6.170;2023-04-24T09:55:00;5.00;;;2.75;;
74371;SDS011;62885;51.374;6.170;2023-04-24T09:57:25;7.60;;;2.65;;
74371;SDS011;62885;51.374;6.170;2023-04-24T09:59:50;8.57;;;2.92;;
74371;SDS011;62885;51.374;6.170;2023-04-24T10:02:21;10.02;;;3.35;;
74371;SDS011;62885;51.374;6.170;2023-04-24T10:04:56;8.13;;;3.55;;
74371;SDS011;62885;51.374;6.170;2023-04-24T10:07:25;7.88;;;3.17;;
74371;SDS011;62885;51.374;6.170;2023-04-24T10:09:51;10.20;;;3.28;;
74371;SDS011;62885;51.374;6.170;2023-04-24T10:12:16;6.57;;;3.42;;
74371;SDS011;62885;51.374;6.170;2023-04-24T10:14:42;10.25;;;3.47;;
74371;SDS011;62885;51.374;6.170;2023-04-24T10:17:09;6.45;;;3.03;;
74371;SDS011;62885;51.374;6.170;2023-04-24T10:19:36;9.63;;;3.85;;
74371;SDS011;62885;51.374;6.170;2023-04-24T10:22:02;9.07;;;2.90;;
74371;SDS011;62885;51.374;6.170;2023-04-24T10:24:28;9.43;;;3.10;;
74371;SDS011;62885;51.374;6.170;2023-04-24T10:26:54;7.97;;;2.45;;
74371;SDS011;62885;51.374;6.170;2023-04-24T10:29:21;15.73;;;5.28;;
74371;SDS011;62885;51.374;6.170;2023-04-24T10:31:47;11.13;;;3.00;;
74371;SDS011;62885;51.374;6.170;2023-04-24T10:34:13;7.25;;;3.63;;
74371;SDS011;62885;51.374;6.170;2023-04-24T10:36:42;7.28;;;2.95;;
74371;SDS011;62885;51.374;6.170;2023-04-24T10:39:11;9.30;;;2.90;;
74371;SDS011;62885;51.374;6.170;2023-04-24T10:41:39;10.00;;;3.65;;
74371;SDS011;62885;51.374;6.170;2023-04-24T10:44:05;8.88;;;2.00;;
74371;SDS011;62885;51.374;6.170;2023-04-24T10:46:37;7.57;;;2.20;;
74371;SDS011;62885;51.374;6.170;2023-04-24T10:49:06;6.65;;;2.30;;
74371;SDS011;62885;51.374;6.170;2023-04-24T10:54:27;5.90;;;2.15;;
74371;SDS011;62885;51.374;6.170;2023-04-24T10:57:36;6.88;;;1.83;;
74371;SDS011;62885;51.374;6.170;2023-04-24T10:59:45;10.02;;;2.03;;
74371;SDS011;62885;51.374;6.170;2023-04-24T11:02:15;7.38;;;1.77;;
74371;SDS011;62885;51.374;6.170;2023-04-24T11:04:41;7.38;;;2.42;;
74371;SDS011;62885;51.374;6.170;2023-04-24T11:07:12;6.85;;;1.77;;
74371;SDS011;62885;51.374;6.170;2023-04-24T11:09:38;7.75;;;2.28;;
74371;SDS011;62885;51.374;6.170;2023-04-24T11:12:07;4.13;;;1.60;;
74371;SDS011;62885;51.374;6.170;2023-04-24T11:15:20;6.60;;;2.00;;
74371;SDS011;62885;51.374;6.170;2023-04-24T11:17:30;6.88;;;2.67;;
74371;SDS011;62885;51.374;6.170;2023-04-24T11:20:06;4.45;;;1.55;;
74371;SDS011;62885;51.374;6.170;2023-04-24T11:22:34;10.40;;;1.83;;
74371;SDS011;62885;51.374;6.170;2023-04-24T11:25:01;6.18;;;1.60;;
74371;SDS011;62885;51.374;6.170;2023-04-24T11:27:33;6.03;;;1.83;;
74371;SDS011;62885;51.374;6.170;2023-04-24T11:30:05;3.42;;;1.65;;
74371;SDS011;62885;51.374;6.170;2023-04-24T11:37:44;7.93;;;1.90;;
74371;SDS011;62885;51.374;6.170;2023-04-24T11:40:11;5.47;;;1.55;;
74371;SDS011;62885;51.374;6.170;2023-04-24T11:42:43;4.60;;;1.55;;
74371;SDS011;62885;51.374;6.170;2023-04-24T11:45:11;4.57;;;1.90;;
74371;SDS011;62885;51.374;6.170;2023-04-24T11:47:43;7.90;;;1.83;;
74371;SDS011;62885;51.374;6.170;2023-04-24T11:50:11;6.82;;;1.40;;
74371;SDS011;62885;51.374;6.170;2023-04-24T11:52:41;6.20;;;1.55;;
74371;SDS011;62885;51.374;6.170;2023-04-24T11:55:09;5.22;;;1.50;;
74371;SDS011;62885;51.374;6.170;2023-04-24T11:57:49;4.18;;;1.45;;
74371;SDS011;62885;51.374;6.170;2023-04-24T12:00:16;7.38;;;2.25;;
74371;SDS011;62885;51.374;6.170;2023-04-24T12:02:42;4.85;;;1.45;;
74371;SDS011;62885;51.374;6.170;2023-04-24T12:05:07;6.15;;;1.70;;
74371;SDS011;62885;51.374;6.170;2023-04-24T12:07:39;3.67;;;1.00;;
74371;SDS011;62885;51.374;6.170;2023-04-24T12:10:07;1.67;;;0.80;;
74371;SDS011;62885;51.374;6.170;2023-04-24T12:12:34;3.83;;;0.95;;
74371;SDS011;62885;51.374;6.170;2023-04-24T12:15:00;4.65;;;0.98;;
74371;SDS011;62885;51.374;6.170;2023-04-24T12:17:32;3.95;;;1.10;;
74371;SDS011;62885;51.374;6.170;2023-04-24T12:20:02;5.47;;;1.30;;
74371;SDS011;62885;51.374;6.170;2023-04-24T12:22:46;6.32;;;1.05;;
74371;SDS011;62885;51.374;6.170;2023-04-24T12:27:38;3.17;;;1.42;;
74371;SDS011;62885;51.374;6.170;2023-04-24T12:30:04;3.38;;;1.10;;
74371;SDS011;62885;51.374;6.170;2023-04-24T12:32:30;2.90;;;0.85;;
74371;SDS011;62885;51.374;6.170;2023-04-24T12:34:56;4.05;;;0.95;;
74371;SDS011;62885;51.374;6.170;2023-04-24T12:37:23;3.70;;;1.17;;
74371;SDS011;62885;51.374;6.170;2023-04-24T12:40:03;2.45;;;1.20;;
74371;SDS011;62885;51.374;6.170;2023-04-24T12:42:33;1.48;;;0.90;;
74371;SDS011;62885;51.374;6.170;2023-04-24T12:45:03;4.60;;;0.98;;
74371;SDS011;62885;51.374;6.170;2023-04-24T12:47:31;1.02;;;0.60;;
74371;SDS011;62885;51.374;6.170;2023-04-24T12:49:57;1.45;;;0.93;;
74371;SDS011;62885;51.374;6.170;2023-04-24T12:52:23;3.40;;;1.67;;
74371;SDS011;62885;51.374;6.170;2023-04-24T12:54:52;3.33;;;0.90;;
74371;SDS011;62885;51.374;6.170;2023-04-24T12:57:19;3.20;;;1.00;;
74371;SDS011;62885;51.374;6.170;2023-04-24T12:59:44;2.97;;;1.35;;
74371;SDS011;62885;51.374;6.170;2023-04-24T13:02:10;6.07;;;1.00;;
74371;SDS011;62885;51.374;6.170;2023-04-24T13:04:36;3.35;;;0.90;;
74371;SDS011;62885;51.374;6.170;2023-04-24T13:07:01;4.22;;;0.95;;
74371;SDS011;62885;51.374;6.170;2023-04-24T13:09:27;1.42;;;0.95;;
74371;SDS011;62885;51.374;6.170;2023-04-24T13:11:53;5.47;;;0.93;;
74371;SDS011;62885;51.374;6.170;2023-04-24T13:14:20;5.35;;;1.00;;
74371;SDS011;62885;51.374;6.170;2023-04-24T13:16:45;3.72;;;0.80;;
74371;SDS011;62885;51.374;6.170;2023-04-24T13:19:11;1.23;;;0.80;;
74371;SDS011;62885;51.374;6.170;2023-04-24T13:21:36;1.67;;;1.10;;
74371;SDS011;62885;51.374;6.170;2023-04-24T13:24:01;4.25;;;1.02;;
74371;SDS011;62885;51.374;6.170;2023-04-24T13:26:28;3.70;;;1.08;;
74371;SDS011;62885;51.374;6.170;2023-04-24T13:28:54;2.95;;;0.70;;
74371;SDS011;62885;51.374;6.170;2023-04-24T13:31:19;1.53;;;0.90;;
74371;SDS011;62885;51.374;6.170;2023-04-24T13:33:44;2.10;;;0.60;;
74371;SDS011;62885;51.374;6.170;2023-04-24T13:36:10;0.70;;;0.70;;
74371;SDS011;62885;51.374;6.170;2023-04-24T13:38:35;2.00;;;0.70;;
74371;SDS011;62885;51.374;6.170;2023-04-24T13:41:00;2.20;;;0.82;;
74371;SDS011;62885;51.374;6.170;2023-04-24T13:43:26;1.42;;;0.80;;
74371;SDS011;62885;51.374;6.170;2023-04-24T13:45:51;2.22;;;0.80;;
74371;SDS011;62885;51.374;6.170;2023-04-24T13:48:17;2.58;;;1.00;;
74371;SDS011;62885;51.374;6.170;2023-04-24T13:50:43;2.47;;;1.00;;
74371;SDS011;62885;51.374;6.170;2023-04-24T13:53:09;1.00;;;0.70;;
74371;SDS011;62885;51.374;6.170;2023-04-24T13:55:34;5.50;;;1.13;;
74371;SDS011;62885;51.374;6.170;2023-04-24T13:58:00;1.20;;;0.63;;
74371;SDS011;62885;51.374;6.170;2023-04-24T14:00:26;2.72;;;0.95;;
74371;SDS011;62885;51.374;6.170;2023-04-24T14:02:51;3.13;;;1.00;;
74371;SDS011;62885;51.374;6.170;2023-04-24T14:05:17;2.90;;;0.80;;
74371;SDS011;62885;51.374;6.170;2023-04-24T14:07:43;2.92;;;0.77;;
74371;SDS011;62885;51.374;6.170;2023-04-24T14:10:08;2.60;;;0.85;;
74371;SDS011;62885;51.374;6.170;2023-04-24T14:12:34;4.82;;;1.08;;
74371;SDS011;62885;51.374;6.170;2023-04-24T14:15:00;2.90;;;1.38;;
74371;SDS011;62885;51.374;6.170;2023-04-24T14:17:26;2.42;;;0.98;;
74371;SDS011;62885;51.374;6.170;2023-04-24T14:19:54;1.52;;;0.73;;
74371;SDS011;62885;51.374;6.170;2023-04-24T14:22:21;4.72;;;1.27;;
74371;SDS011;62885;51.374;6.170;2023-04-24T14:24:46;3.97;;;1.30;;
74371;SDS011;62885;51.374;6.170;2023-04-24T14:27:12;2.30;;;1.10;;
74371;SDS011;62885;51.374;6.170;2023-04-24T14:29:37;4.60;;;1.13;;
74371;SDS011;62885;51.374;6.170;2023-04-24T14:32:02;2.25;;;1.25;;
74371;SDS011;62885;51.374;6.170;2023-04-24T14:34:28;2.85;;;1.33;;
74371;SDS011;62885;51.374;6.170;2023-04-24T14:36:53;3.47;;;1.10;;
74371;SDS011;62885;51.374;6.170;2023-04-24T14:39:19;2.10;;;1.10;;
74371;SDS011;62885;51.374;6.170;2023-04-24T14:41:45;2.47;;;1.30;;
74371;SDS011;62885;51.374;6.170;2023-04-24T14:44:10;3.60;;;1.10;;
74371;SDS011;62885;51.374;6.170;2023-04-24T14:46:36;4.03;;;1.38;;
74371;SDS011;62885;51.374;6.170;2023-04-24T14:49:01;3.97;;;1.20;;
74371;SDS011;62885;51.374;6.170;2023-04-24T14:51:27;3.30;;;1.10;;
74371;SDS011;62885;51.374;6.170;2023-04-24T14:53:52;2.55;;;1.00;;
74371;SDS011;62885;51.374;6.170;2023-04-24T14:56:17;3.70;;;1.42;;
74371;SDS011;62885;51.374;6.170;2023-04-24T14:58:43;2.13;;;1.20;;